Time;durP1;ratioP1;P1;durP2;ratioP2;P2;SDS_P1;SDS_P2;PMS_P1;PMS_P2;Temp;Humidity;BMP_temperature;BMP_pressure;BME280_temperature;BME280_humidity;BME280_pressure;Samples;Min_cycle;Max_cycle;Signal;HPM_P1;HPM_P2
2023/07/07 00:00:52;;;;;;;9.85;2.53;;;19.60;97.20;;;;;;4987335;28;20049;-78
2023/07/07 00:03:18;;;;;;;3.85;2.58;;;19.70;97.00;;;;;;4987621;28;20490;-80
2023/07/07 00:05:44;;;;;;;6.85;2.67;;;19.70;96.70;;;;;;4987607;28;20030;-80
2023/07/07 00:08:11;;;;;;;4.70;2.35;;;19.70;97.10;;;;;;4970202;28;20168;-80
2023/07/07 00:10:37;;;;;;;4.45;2.45;;;19.70;97.50;;;;;;4970180;28;20405;-79
2023/07/07 00:13:03;;;;;;;10.55;2.30;;;19.60;98.40;;;;;;4987390;28;20049;-79
2023/07/07 00:15:29;;;;;;;5.60;2.67;;;19.60;99.60;;;;;;4987404;28;20414;-80
2023/07/07 00:17:54;;;;;;;4.13;2.25;;;19.60;99.90;;;;;;4987335;28;20034;-79
2023/07/07 00:20:21;;;;;;;6.28;2.30;;;19.60;99.90;;;;;;4987942;28;20026;-80
2023/07/07 00:22:47;;;;;;;9.50;2.47;;;19.50;99.90;;;;;;4973402;28;20553;-80
2023/07/07 00:25:13;;;;;;;4.53;2.33;;;19.50;99.90;;;;;;4990923;28;20148;-79
2023/07/07 00:27:39;;;;;;;3.90;2.55;;;19.50;99.90;;;;;;4973248;28;20407;-80
2023/07/07 00:30:07;;;;;;;8.75;3.28;;;19.50;99.90;;;;;;4972964;28;20030;-78
2023/07/07 00:32:33;;;;;;;5.43;2.72;;;19.50;99.90;;;;;;4973051;28;20025;-79
2023/07/07 00:34:59;;;;;;;6.35;2.65;;;19.50;99.90;;;;;;4973174;28;20069;-77
2023/07/07 00:37:25;;;;;;;7.78;3.03;;;19.40;99.90;;;;;;4990312;28;20511;-77
2023/07/07 00:39:50;;;;;;;9.75;2.83;;;19.40;99.90;;;;;;4990400;28;20030;-79
2023/07/07 00:42:16;;;;;;;11.52;2.50;;;19.40;99.90;;;;;;4972798;28;20111;-80
2023/07/07 00:45:20;;;;;;;5.35;2.55;;;19.40;99.90;;;;;;4972933;28;20029;-79
2023/07/07 00:47:57;;;;;;;7.50;2.88;;;19.40;99.90;;;;;;5010706;28;20129;-78
2023/07/07 00:50:36;;;;;;;6.30;2.53;;;19.40;99.90;;;;;;5010674;28;20030;-78
2023/07/07 00:53:03;;;;;;;5.45;2.78;;;19.40;99.90;;;;;;4987950;28;20080;-78
2023/07/07 00:55:31;;;;;;;4.97;2.80;;;19.40;99.90;;;;;;4989880;28;20080;-78
2023/07/07 00:58:01;;;;;;;3.60;2.28;;;19.30;99.90;;;;;;4972917;28;20029;-79
2023/07/07 01:00:27;;;;;;;5.30;2.22;;;19.30;99.90;;;;;;4972645;28;20423;-79
2023/07/07 01:02:57;;;;;;;12.77;3.00;;;19.30;99.90;;;;;;4990102;28;20549;-79
2023/07/07 01:05:28;;;;;;;8.70;2.53;;;19.30;99.90;;;;;;4990169;28;20018;-79
2023/07/07 01:07:59;;;;;;;7.05;2.45;;;19.30;99.90;;;;;;4972570;28;20034;-79
2023/07/07 01:10:25;;;;;;;5.72;2.42;;;19.30;99.90;;;;;;4972329;28;20026;-79
2023/07/07 01:12:51;;;;;;;6.95;2.30;;;19.30;99.90;;;;;;4989861;28;20030;-80
2023/07/07 01:15:18;;;;;;;7.30;2.40;;;19.30;99.90;;;;;;4972575;28;20041;-79
2023/07/07 01:18:02;;;;;;;7.18;2.72;;;19.30;99.90;;;;;;4972611;28;20030;-80
2023/07/07 01:20:30;;;;;;;5.20;3.00;;;19.20;99.90;;;;;;4989874;28;20376;-80
2023/07/07 01:23:15;;;;;;;12.10;3.65;;;19.30;99.90;;;;;;4989563;28;20030;-79
2023/07/07 01:26:14;;;;;;;4.43;2.72;;;19.20;99.90;;;;;;4972089;28;20058;-79
2023/07/07 01:29:03;;;;;;;5.60;3.33;;;19.20;99.90;;;;;;4972173;28;20445;-79
2023/07/07 01:31:42;;;;;;;5.30;2.33;;;19.20;99.90;;;;;;4989739;28;20027;-79
2023/07/07 01:34:12;;;;;;;5.35;2.50;;;19.20;99.90;;;;;;4972212;28;20030;-80
2023/07/07 01:36:37;;;;;;;4.47;2.42;;;19.20;99.90;;;;;;4989610;28;20044;-80
2023/07/07 01:39:03;;;;;;;7.32;3.08;;;19.10;99.90;;;;;;4989346;28;20050;-80
2023/07/07 01:41:55;;;;;;;9.63;2.75;;;19.10;99.90;;;;;;4989400;28;20117;-80
2023/07/07 01:44:29;;;;;;;5.72;2.35;;;19.20;99.90;;;;;;4971955;28;20018;-80
2023/07/07 01:47:01;;;;;;;4.60;2.30;;;19.10;99.90;;;;;;4989275;28;20026;-79
2023/07/07 01:49:29;;;;;;;7.30;2.58;;;19.10;99.90;;;;;;4989034;28;20022;-78
2023/07/07 01:52:02;;;;;;;10.25;2.83;;;19.10;99.90;;;;;;4971780;28;20079;-79
2023/07/07 01:54:31;;;;;;;4.85;2.40;;;19.10;99.90;;;;;;4989455;28;20034;-80
2023/07/07 01:57:00;;;;;;;6.75;2.92;;;18.90;99.90;;;;;;4971551;28;20818;-79
2023/07/07 01:59:26;;;;;;;4.47;2.53;;;19.00;99.90;;;;;;4988725;28;20019;-80
2023/07/07 02:01:52;;;;;;;4.30;2.38;;;18.90;99.90;;;;;;4971386;28;20502;-79
2023/07/07 02:04:18;;;;;;;7.57;2.63;;;18.90;99.90;;;;;;4971341;28;20022;-80
2023/07/07 02:06:43;;;;;;;4.40;2.47;;;18.90;99.90;;;;;;4988257;28;20045;-80
2023/07/07 02:09:09;;;;;;;13.70;2.80;;;18.90;99.90;;;;;;4971420;28;20026;-79
2023/07/07 02:11:34;;;;;;;4.70;2.90;;;18.80;99.90;;;;;;4989107;28;20483;-80
2023/07/07 02:14:00;;;;;;;11.02;3.08;;;18.80;99.90;;;;;;4971596;28;20054;-81
2023/07/07 02:16:26;;;;;;;7.25;2.33;;;18.80;99.90;;;;;;4972823;28;20172;-79
2023/07/07 02:18:52;;;;;;;6.53;1.98;;;18.80;99.90;;;;;;4971487;28;20023;-80
2023/07/07 02:21:19;;;;;;;13.10;3.22;;;18.80;99.90;;;;;;4971097;28;20038;-80
2023/07/07 02:23:45;;;;;;;5.18;2.42;;;18.80;99.90;;;;;;4988903;28;20033;-80
2023/07/07 02:26:13;;;;;;;7.47;2.88;;;18.70;99.90;;;;;;4971101;28;20030;-80
2023/07/07 02:28:39;;;;;;;4.28;2.90;;;18.80;99.90;;;;;;4971348;28;20050;-80
2023/07/07 02:31:05;;;;;;;5.75;3.00;;;18.80;99.90;;;;;;4988544;28;20065;-79
2023/07/07 02:33:31;;;;;;;5.07;2.88;;;18.80;99.90;;;;;;4971480;28;20088;-80
2023/07/07 02:36:02;;;;;;;8.60;3.13;;;18.90;99.90;;;;;;4988867;28;20038;-80
2023/07/07 02:38:29;;;;;;;8.93;2.63;;;18.90;99.90;;;;;;4988581;28;20061;-80
2023/07/07 02:40:55;;;;;;;6.07;2.85;;;18.90;99.90;;;;;;4971139;28;20034;-80
2023/07/07 02:43:21;;;;;;;6.20;2.80;;;18.90;99.90;;;;;;4970720;28;20026;-80
2023/07/07 02:45:46;;;;;;;9.45;3.40;;;18.90;99.90;;;;;;4971054;28;20387;-80
2023/07/07 02:48:13;;;;;;;5.93;3.03;;;18.90;99.90;;;;;;4971109;28;20585;-81
2023/07/07 02:50:39;;;;;;;6.68;3.10;;;18.90;99.90;;;;;;4971029;28;20398;-80
2023/07/07 02:53:05;;;;;;;13.55;2.65;;;18.90;99.90;;;;;;4971016;28;20561;-80
2023/07/07 02:55:31;;;;;;;5.10;3.08;;;18.90;99.90;;;;;;4970961;28;20117;-80
2023/07/07 02:57:57;;;;;;;9.23;3.00;;;18.80;99.90;;;;;;4988469;28;20479;-81
2023/07/07 03:00:24;;;;;;;7.45;3.25;;;18.80;99.90;;;;;;4970829;28;20030;-80
2023/07/07 03:02:50;;;;;;;6.78;3.63;;;18.80;99.90;;;;;;4970744;28;20034;-80
2023/07/07 03:05:15;;;;;;;5.25;2.80;;;18.80;99.90;;;;;;4970845;28;20406;-80
2023/07/07 03:07:41;;;;;;;7.68;3.35;;;18.80;99.90;;;;;;4988232;28;20030;-81
2023/07/07 03:10:09;;;;;;;5.97;3.17;;;18.80;99.90;;;;;;4988086;28;20034;-81
2023/07/07 03:12:34;;;;;;;6.68;3.15;;;18.80;99.90;;;;;;4970811;28;20033;-80
2023/07/07 03:15:00;;;;;;;8.70;3.20;;;18.80;99.90;;;;;;4970582;28;20057;-80
2023/07/07 03:17:30;;;;;;;5.53;3.22;;;18.80;99.90;;;;;;4970713;28;20121;-80
2023/07/07 03:19:56;;;;;;;8.77;3.20;;;18.90;99.90;;;;;;4988110;28;20502;-80
2023/07/07 03:22:22;;;;;;;5.20;3.15;;;19.00;99.90;;;;;;4970248;28;20042;-80
2023/07/07 03:24:50;;;;;;;10.50;4.25;;;19.00;99.90;;;;;;4970611;28;20045;-80
2023/07/07 03:27:16;;;;;;;6.45;4.07;;;19.00;99.80;;;;;;4970847;28;20034;-81
2023/07/07 03:29:42;;;;;;;5.88;2.90;;;19.10;99.30;;;;;;4970633;28;20143;-80
2023/07/07 03:32:07;;;;;;;8.43;3.67;;;19.10;98.40;;;;;;4987801;28;20066;-81
2023/07/07 03:34:36;;;;;;;9.88;3.95;;;19.10;97.40;;;;;;4988098;28;20037;-77
2023/07/07 03:37:02;;;;;;;7.15;3.78;;;19.20;96.80;;;;;;4970314;28;20031;-78
2023/07/07 03:39:28;;;;;;;6.85;3.85;;;19.20;95.70;;;;;;4988359;28;20079;-78
2023/07/07 03:41:53;;;;;;;10.88;3.47;;;19.20;95.10;;;;;;4971100;28;20042;-79
2023/07/07 03:44:19;;;;;;;6.68;3.65;;;19.30;93.70;;;;;;4970325;28;20518;-78
2023/07/07 03:46:45;;;;;;;13.05;4.30;;;19.40;91.20;;;;;;4987631;28;20459;-78
2023/07/07 03:49:10;;;;;;;6.90;3.72;;;19.40;93.00;;;;;;4987715;28;20037;-78
2023/07/07 03:51:37;;;;;;;9.98;4.35;;;19.50;93.80;;;;;;4987757;28;20034;-82
2023/07/07 03:54:04;;;;;;;6.93;3.95;;;19.50;94.40;;;;;;4987367;28;20561;-81
2023/07/07 03:56:29;;;;;;;8.00;3.67;;;19.50;95.50;;;;;;4969042;28;20037;-81
2023/07/07 03:58:55;;;;;;;5.88;3.53;;;19.50;96.30;;;;;;4987642;28;20031;-79
2023/07/07 04:01:20;;;;;;;7.03;3.97;;;19.40;95.30;;;;;;4987655;28;20051;-78
2023/07/07 04:03:47;;;;;;;7.20;4.28;;;19.50;94.50;;;;;;4969973;28;20096;-78
2023/07/07 04:06:15;;;;;;;7.53;3.33;;;19.40;94.20;;;;;;4970113;28;20026;-79
2023/07/07 04:08:41;;;;;;;6.50;3.53;;;19.40;94.10;;;;;;4969983;28;20031;-79
2023/07/07 04:11:19;;;;;;;6.80;3.92;;;19.40;93.60;;;;;;4969956;28;20049;-79
2023/07/07 04:13:47;;;;;;;6.22;4.05;;;19.40;93.20;;;;;;4987291;28;20521;-79
2023/07/07 04:16:14;;;;;;;10.32;3.58;;;19.40;92.50;;;;;;4970003;28;20022;-79
2023/07/07 04:18:42;;;;;;;7.03;3.67;;;19.40;91.90;;;;;;4987277;28;20044;-79
2023/07/07 04:21:10;;;;;;;9.95;3.72;;;19.40;92.10;;;;;;4987060;28;20095;-78
2023/07/07 04:23:40;;;;;;;6.40;3.80;;;19.50;92.10;;;;;;4987299;28;20029;-78
2023/07/07 04:26:07;;;;;;;8.02;3.70;;;19.50;91.70;;;;;;4969632;28;20575;-78
2023/07/07 04:28:36;;;;;;;6.97;3.97;;;19.50;92.10;;;;;;4987328;28;20208;-78
2023/07/07 04:31:03;;;;;;;5.78;2.92;;;19.40;92.20;;;;;;4987142;28;20022;-79
2023/07/07 04:33:30;;;;;;;10.43;5.35;;;19.40;92.20;;;;;;4969455;28;20036;-78
2023/07/07 04:35:58;;;;;;;7.93;3.55;;;19.40;92.00;;;;;;4987167;28;20406;-79
2023/07/07 04:38:30;;;;;;;14.85;4.40;;;19.40;91.90;;;;;;4986681;28;20046;-79
2023/07/07 04:41:22;;;;;;;6.22;3.60;;;19.50;92.20;;;;;;4969645;28;20115;-79
2023/07/07 04:43:51;;;;;;;5.53;3.47;;;19.50;92.80;;;;;;4969585;28;20038;-78
2023/07/07 04:46:20;;;;;;;6.03;3.40;;;19.50;92.20;;;;;;4986712;28;20030;-78
2023/07/07 04:48:46;;;;;;;8.02;4.05;;;19.50;92.60;;;;;;4969359;28;20062;-78
2023/07/07 04:51:12;;;;;;;5.32;3.30;;;19.60;92.40;;;;;;4986958;28;20030;-78
2023/07/07 04:53:39;;;;;;;6.38;3.55;;;19.60;92.60;;;;;;4969241;28;20543;-79
2023/07/07 04:56:10;;;;;;;9.45;3.55;;;19.60;92.70;;;;;;4986753;28;20045;-79
2023/07/07 04:58:37;;;;;;;6.32;3.90;;;19.70;94.10;;;;;;4986894;28;20034;-79
2023/07/07 05:01:06;;;;;;;10.60;3.83;;;19.70;94.70;;;;;;4986683;28;20040;-78
2023/07/07 05:03:32;;;;;;;8.13;4.03;;;19.80;93.00;;;;;;4986741;28;20434;-79
2023/07/07 05:05:58;;;;;;;14.15;3.75;;;19.80;91.50;;;;;;4987091;28;20022;-77
2023/07/07 05:08:24;;;;;;;11.35;3.47;;;19.80;90.90;;;;;;4972811;28;20124;-79
2023/07/07 05:10:49;;;;;;;8.05;2.92;;;19.90;90.70;;;;;;4972707;28;20041;-78
2023/07/07 05:13:15;;;;;;;7.95;3.78;;;20.00;91.10;;;;;;4972685;28;20026;-79
2023/07/07 05:15:40;;;;;;;5.88;3.30;;;19.90;90.90;;;;;;4989862;28;20033;-79
2023/07/07 05:18:07;;;;;;;9.80;3.22;;;20.00;90.70;;;;;;4989755;28;20031;-79
2023/07/07 05:20:33;;;;;;;11.05;3.35;;;20.00;90.10;;;;;;4972591;28;20064;-80
2023/07/07 05:22:58;;;;;;;8.85;3.00;;;20.00;90.50;;;;;;4972443;28;20034;-80
2023/07/07 05:25:24;;;;;;;4.57;2.83;;;20.00;90.10;;;;;;4989800;28;20103;-79
2023/07/07 05:27:50;;;;;;;9.65;2.60;;;20.10;89.50;;;;;;4972439;28;20033;-80
2023/07/07 05:30:16;;;;;;;4.50;2.83;;;20.10;88.50;;;;;;4972048;28;20029;-79
2023/07/07 05:32:42;;;;;;;9.95;2.50;;;20.10;89.30;;;;;;4989691;28;20490;-79
2023/07/07 05:35:07;;;;;;;12.02;3.70;;;20.10;90.00;;;;;;4989740;28;20039;-79
2023/07/07 05:37:33;;;;;;;6.97;3.10;;;20.10;89.20;;;;;;4972201;28;20418;-79
2023/07/07 05:39:59;;;;;;;12.63;3.05;;;20.10;89.70;;;;;;4989661;28;20083;-78
2023/07/07 05:42:25;;;;;;;8.15;3.20;;;20.10;89.80;;;;;;4972062;28;20133;-80
2023/07/07 05:44:51;;;;;;;8.70;2.78;;;20.10;89.20;;;;;;4971989;28;20054;-79
2023/07/07 05:47:16;;;;;;;4.45;2.72;;;20.10;88.30;;;;;;4972187;28;20031;-79
2023/07/07 05:49:42;;;;;;;6.07;2.95;;;20.10;87.20;;;;;;4972083;28;20076;-80
2023/07/07 05:52:08;;;;;;;5.38;3.00;;;20.10;88.10;;;;;;4989192;28;20034;-79
2023/07/07 05:54:34;;;;;;;17.90;3.45;;;20.10;87.70;;;;;;4989512;28;20113;-79
2023/07/07 05:57:01;;;;;;;4.50;2.80;;;20.10;87.50;;;;;;4989289;28;20089;-80
2023/07/07 05:59:27;;;;;;;7.20;2.88;;;20.10;87.10;;;;;;4971881;28;20031;-79
2023/07/07 06:01:53;;;;;;;7.57;3.08;;;20.10;87.50;;;;;;4971668;28;20042;-79
2023/07/07 06:04:18;;;;;;;6.05;2.28;;;20.10;88.30;;;;;;4989156;28;20113;-79
2023/07/07 06:06:44;;;;;;;4.50;2.72;;;20.20;89.00;;;;;;4989335;28;20038;-79
2023/07/07 06:09:10;;;;;;;5.63;2.95;;;20.20;89.60;;;;;;4971999;28;20034;-79
2023/07/07 06:11:35;;;;;;;4.90;2.28;;;20.20;89.20;;;;;;4971621;28;20037;-78
2023/07/07 06:14:01;;;;;;;6.68;2.80;;;20.30;88.70;;;;;;4971576;28;20046;-79
2023/07/07 06:16:26;;;;;;;5.35;2.80;;;20.30;89.30;;;;;;4971644;28;20477;-79
2023/07/07 06:18:52;;;;;;;6.65;3.35;;;20.40;89.00;;;;;;4988419;28;20407;-79
2023/07/07 06:21:18;;;;;;;5.57;2.45;;;20.50;86.40;;;;;;4988976;28;20034;-80
2023/07/07 06:23:43;;;;;;;4.30;2.58;;;20.60;85.10;;;;;;4971702;28;20738;-79
2023/07/07 06:26:09;;;;;;;7.65;3.03;;;20.70;86.70;;;;;;4988785;28;20801;-78
2023/07/07 06:28:35;;;;;;;6.25;2.58;;;20.80;86.70;;;;;;4971490;28;20133;-79
2023/07/07 06:31:00;;;;;;;4.85;2.42;;;20.90;86.10;;;;;;4971313;28;20037;-79
2023/07/07 06:33:26;;;;;;;5.28;2.22;;;21.10;85.60;;;;;;4988757;28;20027;-79
2023/07/07 06:35:52;;;;;;;4.07;2.22;;;21.20;85.40;;;;;;4971457;28;20033;-79
2023/07/07 06:38:17;;;;;;;4.88;2.70;;;21.30;84.30;;;;;;4971023;28;20136;-79
2023/07/07 06:40:46;;;;;;;6.63;2.92;;;21.40;84.20;;;;;;4971249;28;20034;-78
2023/07/07 06:43:12;;;;;;;3.88;2.20;;;21.50;82.50;;;;;;4971078;28;20086;-79
2023/07/07 06:45:38;;;;;;;6.10;2.78;;;21.50;84.30;;;;;;4970981;28;20074;-79
2023/07/07 06:48:05;;;;;;;4.25;2.20;;;21.50;82.60;;;;;;4970972;28;20065;-79
2023/07/07 06:50:34;;;;;;;5.07;2.80;;;21.60;82.30;;;;;;4988422;28;20121;-79
2023/07/07 06:52:59;;;;;;;5.32;2.80;;;21.60;83.00;;;;;;4988240;28;20034;-80
2023/07/07 06:55:25;;;;;;;5.90;2.67;;;21.50;81.80;;;;;;4971068;28;20037;-79
2023/07/07 06:57:51;;;;;;;4.43;2.20;;;21.60;80.50;;;;;;4970835;28;20054;-80
2023/07/07 07:00:17;;;;;;;5.75;2.40;;;21.60;79.00;;;;;;4988110;28;20053;-80
2023/07/07 07:02:44;;;;;;;6.65;2.80;;;21.60;77.60;;;;;;4970949;28;20038;-79
2023/07/07 07:05:10;;;;;;;3.97;2.15;;;21.60;79.80;;;;;;4988420;28;20434;-78
2023/07/07 07:07:35;;;;;;;7.90;2.53;;;21.70;77.40;;;;;;4988805;28;20030;-79
2023/07/07 07:10:02;;;;;;;9.30;2.70;;;21.70;78.50;;;;;;4971153;28;20037;-80
2023/07/07 07:12:29;;;;;;;9.00;2.70;;;21.70;77.60;;;;;;4970670;28;20502;-80
2023/07/07 07:14:55;;;;;;;10.00;2.50;;;21.70;76.70;;;;;;4970595;28;20097;-79
2023/07/07 07:17:22;;;;;;;7.90;2.53;;;21.80;80.30;;;;;;4970991;28;20171;-79
2023/07/07 07:19:48;;;;;;;3.88;2.03;;;21.80;80.40;;;;;;4970392;28;20172;-80
2023/07/07 07:22:13;;;;;;;6.70;2.65;;;21.80;75.50;;;;;;4987690;28;20129;-79
2023/07/07 07:24:39;;;;;;;7.55;2.25;;;21.80;76.00;;;;;;4988184;28;20023;-79
2023/07/07 07:27:05;;;;;;;6.60;3.15;;;21.80;76.30;;;;;;4988026;28;20042;-79
2023/07/07 07:29:31;;;;;;;5.68;2.40;;;21.80;75.70;;;;;;4987811;28;20053;-79
2023/07/07 07:31:57;;;;;;;9.77;2.78;;;21.80;75.00;;;;;;4970493;28;20084;-79
2023/07/07 07:34:25;;;;;;;11.02;1.92;;;21.80;67.90;;;;;;4970457;28;20124;-78
2023/07/07 07:36:52;;;;;;;7.57;2.40;;;21.90;69.60;;;;;;4970225;28;20063;-79
2023/07/07 07:39:19;;;;;;;5.28;2.35;;;21.80;69.20;;;;;;4970136;28;20055;-79
2023/07/07 07:41:47;;;;;;;6.93;2.22;;;21.80;70.60;;;;;;4987445;28;20055;-79
2023/07/07 07:44:18;;;;;;;4.25;2.28;;;21.90;71.10;;;;;;4987627;28;20019;-79
2023/07/07 07:46:46;;;;;;;7.15;2.60;;;22.10;71.30;;;;;;4970242;28;20042;-79
2023/07/07 07:49:12;;;;;;;8.43;2.15;;;22.20;70.70;;;;;;4970167;28;20068;-79
2023/07/07 07:51:39;;;;;;;7.63;2.33;;;22.40;67.10;;;;;;4987658;28;20040;-81
2023/07/07 07:54:07;;;;;;;3.80;1.63;;;22.50;68.70;;;;;;4970101;28;20571;-80
2023/07/07 07:56:33;;;;;;;12.15;2.70;;;22.60;68.30;;;;;;4987465;28;20030;-80
2023/07/07 07:58:59;;;;;;;4.47;2.25;;;22.80;65.20;;;;;;4970158;28;20055;-80
2023/07/07 08:01:25;;;;;;;6.72;2.20;;;23.00;68.00;;;;;;4987430;28;20506;-81
2023/07/07 08:03:50;;;;;;;5.30;2.10;;;23.40;67.30;;;;;;4987443;28;20038;-79
2023/07/07 08:06:16;;;;;;;6.68;2.90;;;23.90;62.90;;;;;;4969882;28;20113;-77
2023/07/07 08:08:42;;;;;;;5.03;2.35;;;24.30;64.00;;;;;;4987396;28;20490;-78
2023/07/07 08:11:12;;;;;;;7.95;2.20;;;25.40;62.90;;;;;;4969766;28;20037;-78
2023/07/07 08:13:38;;;;;;;4.97;2.65;;;26.40;59.60;;;;;;4987260;28;20427;-78
2023/07/07 08:16:04;;;;;;;6.78;2.42;;;27.40;54.80;;;;;;4987147;28;20026;-78
2023/07/07 08:18:30;;;;;;;14.98;3.13;;;27.80;53.70;;;;;;4987159;28;20113;-79
2023/07/07 08:20:55;;;;;;;8.27;2.45;;;28.50;51.80;;;;;;4969838;28;20034;-79
2023/07/07 08:23:21;;;;;;;6.22;2.55;;;28.60;51.40;;;;;;4987313;28;20031;-78
2023/07/07 08:25:48;;;;;;;5.80;2.80;;;28.10;48.70;;;;;;4987227;28;20026;-79
2023/07/07 08:28:14;;;;;;;4.97;2.25;;;28.10;49.70;;;;;;4969575;28;20030;-79
2023/07/07 08:30:40;;;;;;;4.25;2.08;;;28.40;49.80;;;;;;4969519;28;20034;-79
2023/07/07 08:33:05;;;;;;;7.78;2.22;;;28.20;47.70;;;;;;4987135;28;20531;-79
2023/07/07 08:35:31;;;;;;;7.45;2.30;;;27.70;49.20;;;;;;4986764;28;20048;-79
2023/07/07 08:37:57;;;;;;;7.30;2.47;;;27.40;49.30;;;;;;4969285;28;20056;-78
2023/07/07 08:40:24;;;;;;;4.60;2.95;;;27.20;50.00;;;;;;4969695;28;20030;-78
2023/07/07 08:42:51;;;;;;;9.63;2.42;;;27.00;52.30;;;;;;4989875;28;20046;-79
2023/07/07 08:45:21;;;;;;;4.13;2.25;;;26.80;49.70;;;;;;4973191;28;20023;-79
2023/07/07 08:47:56;;;;;;;7.57;2.17;;;26.80;51.40;;;;;;4972950;28;20033;-78
2023/07/07 08:50:54;;;;;;;6.78;3.13;;;26.60;50.50;;;;;;4972590;28;20019;-78
2023/07/07 08:53:59;;;;;;;5.22;2.13;;;26.60;53.00;;;;;;4991061;28;20034;-77
2023/07/07 08:56:35;;;;;;;4.80;2.05;;;26.80;54.10;;;;;;4990193;28;20031;-78
2023/07/07 08:59:19;;;;;;;8.07;2.50;;;27.00;49.80;;;;;;4990229;28;20030;-79
2023/07/07 09:02:24;;;;;;;9.18;2.80;;;26.80;50.10;;;;;;4990081;28;20494;-79
2023/07/07 09:04:53;;;;;;;18.08;3.17;;;26.30;50.50;;;;;;4990154;28;20030;-78
2023/07/07 09:07:55;;;;;;;4.50;2.03;;;26.10;51.40;;;;;;4972848;28;20682;-78
2023/07/07 09:10:30;;;;;;;4.55;2.60;;;26.10;51.60;;;;;;4990123;28;20079;-79
2023/07/07 09:13:03;;;;;;;5.72;2.38;;;25.90;53.70;;;;;;4990031;28;20117;-79
2023/07/07 09:15:33;;;;;;;4.18;2.30;;;26.10;54.00;;;;;;4990027;28;20030;-78
2023/07/07 09:18:06;;;;;;;8.15;2.10;;;26.50;55.40;;;;;;4989672;28;20038;-78
2023/07/07 09:20:35;;;;;;;5.80;2.17;;;26.80;55.80;;;;;;4989884;28;20073;-79
2023/07/07 09:23:11;;;;;;;7.47;2.60;;;27.60;55.30;;;;;;4972301;28;20477;-79
2023/07/07 09:25:43;;;;;;;6.20;2.55;;;28.10;55.00;;;;;;4989965;28;20027;-79
2023/07/07 09:28:12;;;;;;;7.30;2.15;;;28.40;52.90;;;;;;4989712;28;20084;-79
2023/07/07 09:30:53;;;;;;;11.70;2.75;;;28.20;51.20;;;;;;4972309;28;20030;-78
2023/07/07 09:33:22;;;;;;;5.80;2.17;;;28.20;50.70;;;;;;4989664;28;20034;-79
2023/07/07 09:36:12;;;;;;;6.97;2.53;;;27.90;49.70;;;;;;4972550;28;20066;-81
2023/07/07 09:38:50;;;;;;;4.20;1.73;;;27.90;51.70;;;;;;4989357;28;20103;-81
2023/07/07 09:41:44;;;;;;;5.00;2.38;;;27.70;51.50;;;;;;4989499;28;20121;-81
2023/07/07 09:44:42;;;;;;;4.95;2.05;;;27.60;52.00;;;;;;4996869;28;20051;-79
2023/07/07 09:47:33;;;;;;;8.45;2.92;;;27.60;53.10;;;;;;5000258;28;20537;-79
2023/07/07 09:50:07;;;;;;;4.65;2.42;;;27.40;51.40;;;;;;4971661;28;20026;-78
2023/07/07 09:52:48;;;;;;;11.40;2.30;;;27.70;53.20;;;;;;4988264;28;20035;-79
2023/07/07 09:55:21;;;;;;;4.32;2.35;;;28.00;52.10;;;;;;4989199;28;20038;-79
2023/07/07 09:58:10;;;;;;;3.47;2.50;;;28.00;51.60;;;;;;4971976;28;20725;-79
2023/07/07 10:00:37;;;;;;;7.72;2.78;;;28.30;52.20;;;;;;4989171;28;20522;-78
2023/07/07 10:03:15;;;;;;;4.03;2.65;;;28.50;49.10;;;;;;4989118;28;20034;-78
2023/07/07 10:05:42;;;;;;;5.85;2.88;;;28.70;47.10;;;;;;4989219;28;20034;-79
2023/07/07 10:08:14;;;;;;;3.88;2.47;;;28.70;49.00;;;;;;4988875;28;20032;-79
2023/07/07 10:10:39;;;;;;;5.40;2.67;;;28.40;47.30;;;;;;4989106;28;20030;-78
2023/07/07 10:13:14;;;;;;;10.35;2.88;;;28.20;47.50;;;;;;4988983;28;20026;-77
2023/07/07 10:15:48;;;;;;;6.97;2.67;;;27.80;48.90;;;;;;4971730;28;20026;-77
2023/07/07 10:18:19;;;;;;;4.60;2.47;;;27.60;49.00;;;;;;4988884;28;20142;-79
2023/07/07 10:20:45;;;;;;;9.10;2.33;;;27.70;49.30;;;;;;4988917;28;20499;-78
2023/07/07 10:23:13;;;;;;;4.68;2.08;;;27.50;50.20;;;;;;4988944;28;20117;-79
2023/07/07 10:25:41;;;;;;;5.03;2.25;;;27.30;52.70;;;;;;4988841;28;20106;-79
2023/07/07 10:28:13;;;;;;;9.70;2.92;;;27.20;49.60;;;;;;4971258;28;20030;-79
2023/07/07 10:30:40;;;;;;;10.55;2.28;;;27.30;51.30;;;;;;4971571;28;20120;-78
2023/07/07 10:33:10;;;;;;;10.45;2.42;;;27.40;50.90;;;;;;4988717;28;20038;-78
2023/07/07 10:35:35;;;;;;;16.70;2.80;;;27.60;52.10;;;;;;4971731;28;20509;-77
2023/07/07 10:38:03;;;;;;;5.22;2.53;;;27.70;52.90;;;;;;4988975;28;20050;-78
2023/07/07 10:40:29;;;;;;;6.35;2.42;;;27.80;50.90;;;;;;4988844;28;20030;-79
2023/07/07 10:42:57;;;;;;;6.75;2.55;;;27.70;52.50;;;;;;4970987;28;20410;-78
2023/07/07 10:45:23;;;;;;;6.55;2.72;;;27.50;51.20;;;;;;4971276;28;20478;-78
2023/07/07 10:47:49;;;;;;;6.57;2.50;;;27.40;52.90;;;;;;4988505;28;20034;-79
2023/07/07 10:50:22;;;;;;;10.73;3.58;;;27.60;51.80;;;;;;4988396;28;20026;-78
2023/07/07 10:52:55;;;;;;;7.88;2.30;;;27.40;52.10;;;;;;4988495;28;20037;-79
2023/07/07 10:55:37;;;;;;;7.68;2.78;;;27.00;52.50;;;;;;4988314;28;20046;-77
2023/07/07 10:58:14;;;;;;;10.07;2.33;;;27.00;53.20;;;;;;4988244;28;20026;-78
2023/07/07 11:00:51;;;;;;;5.40;2.20;;;27.00;53.70;;;;;;4970963;28;20079;-78
2023/07/07 11:03:34;;;;;;;4.35;2.47;;;26.90;53.60;;;;;;4970986;28;20046;-78
2023/07/07 11:06:19;;;;;;;6.50;2.58;;;26.70;53.60;;;;;;4987919;28;20097;-78
2023/07/07 11:09:06;;;;;;;5.35;2.50;;;26.70;54.00;;;;;;4970889;28;20103;-79
2023/07/07 11:11:47;;;;;;;6.30;2.78;;;26.60;53.80;;;;;;4988106;28;20437;-78
2023/07/07 11:14:31;;;;;;;7.57;2.20;;;26.60;54.90;;;;;;4970542;28;20027;-79
2023/07/07 11:17:40;;;;;;;6.22;2.78;;;26.60;54.70;;;;;;4988300;28;20052;-78
2023/07/07 11:20:08;;;;;;;6.32;2.40;;;26.50;53.80;;;;;;4987882;28;20043;-78
2023/07/07 11:22:56;;;;;;;8.80;2.60;;;26.50;55.70;;;;;;4988022;28;20084;-78
2023/07/07 11:25:56;;;;;;;7.85;2.55;;;26.40;52.60;;;;;;4970848;28;20083;-78
2023/07/07 11:28:34;;;;;;;6.53;3.22;;;26.40;54.00;;;;;;4987833;28;20027;-78
2023/07/07 11:31:19;;;;;;;4.68;2.92;;;26.40;53.10;;;;;;4970461;28;20022;-77
2023/07/07 11:34:08;;;;;;;6.03;2.67;;;26.50;52.80;;;;;;4987906;28;20334;-78
2023/07/07 11:36:47;;;;;;;4.40;2.25;;;26.40;51.50;;;;;;4970474;28;20034;-79
2023/07/07 11:39:32;;;;;;;4.25;2.72;;;26.40;53.10;;;;;;4970154;28;20153;-78
2023/07/07 11:42:15;;;;;;;4.25;2.45;;;26.60;52.10;;;;;;4987646;28;20051;-79
2023/07/07 11:45:10;;;;;;;8.50;3.05;;;26.60;52.00;;;;;;4987872;28;20046;-79
2023/07/07 11:47:55;;;;;;;5.13;3.00;;;26.60;51.10;;;;;;4987658;28;20037;-80
2023/07/07 11:50:42;;;;;;;6.10;2.75;;;26.60;52.60;;;;;;4987567;28;20026;-79
2023/07/07 11:53:23;;;;;;;7.30;2.67;;;26.70;53.00;;;;;;4970480;28;20083;-77
2023/07/07 11:55:57;;;;;;;9.25;3.28;;;26.80;55.40;;;;;;4987595;28;20543;-79
2023/07/07 11:58:25;;;;;;;10.20;2.97;;;26.90;51.90;;;;;;4987361;28;20030;-79
2023/07/07 12:01:08;;;;;;;7.43;2.45;;;26.70;53.10;;;;;;4987545;28;20444;-78
2023/07/07 12:03:47;;;;;;;3.55;2.38;;;26.90;51.20;;;;;;4970077;28;20045;-79
2023/07/07 12:06:37;;;;;;;8.43;2.58;;;26.90;50.30;;;;;;4969693;28;20059;-79
2023/07/07 12:09:23;;;;;;;6.53;2.75;;;26.80;50.50;;;;;;4987465;28;20034;-79
2023/07/07 12:12:08;;;;;;;5.75;2.67;;;26.90;52.00;;;;;;4970020;28;20035;-79
2023/07/07 12:14:41;;;;;;;8.45;2.33;;;27.00;51.60;;;;;;4987613;28;20143;-79
2023/07/07 12:17:14;;;;;;;4.35;2.20;;;27.00;51.30;;;;;;4986356;28;20023;-79
2023/07/07 12:19:46;;;;;;;3.42;2.10;;;27.00;53.40;;;;;;4987244;28;20072;-79
2023/07/07 12:22:29;;;;;;;5.50;2.38;;;27.10;49.10;;;;;;4986923;28;20049;-79
2023/07/07 12:25:04;;;;;;;3.75;2.47;;;27.00;50.60;;;;;;4969642;28;20114;-79
2023/07/07 12:27:35;;;;;;;6.25;2.35;;;27.20;51.80;;;;;;4987183;28;20038;-79
2023/07/07 12:30:03;;;;;;;4.47;2.70;;;27.20;51.40;;;;;;4987136;28;20449;-78
2023/07/07 12:32:29;;;;;;;9.55;2.22;;;27.20;48.50;;;;;;4969606;28;20058;-79
2023/07/07 12:35:12;;;;;;;3.75;1.77;;;26.90;49.00;;;;;;4969672;28;20035;-79
2023/07/07 12:37:38;;;;;;;6.28;2.88;;;26.80;50.00;;;;;;4986972;28;20049;-79
2023/07/07 12:40:09;;;;;;;8.55;2.50;;;26.70;51.00;;;;;;4987007;28;20031;-79
2023/07/07 12:42:37;;;;;;;4.30;1.85;;;26.60;50.60;;;;;;4969731;28;20061;-79
2023/07/07 12:45:16;;;;;;;6.05;1.77;;;26.70;49.90;;;;;;4969528;28;20402;-79
2023/07/07 12:47:45;;;;;;;4.88;2.25;;;26.70;50.00;;;;;;4969562;28;20402;-78
2023/07/07 12:50:36;;;;;;;5.07;2.10;;;26.70;50.60;;;;;;4969456;28;20113;-79
2023/07/07 12:53:05;;;;;;;5.28;2.30;;;26.80;49.30;;;;;;4969479;28;20030;-79
2023/07/07 12:55:37;;;;;;;5.07;2.42;;;26.80;49.10;;;;;;4986734;28;20068;-79
2023/07/07 12:58:05;;;;;;;5.03;2.05;;;26.80;51.60;;;;;;4986724;28;20088;-79
2023/07/07 13:00:39;;;;;;;3.03;1.92;;;26.90;51.00;;;;;;4969605;28;20074;-79
2023/07/07 13:03:10;;;;;;;3.88;1.98;;;26.80;50.00;;;;;;4986739;28;20034;-79